sensor_id;sensor_type;location;lat;lon;timestamp;P1;durP1;ratioP1;P2;durP2;ratioP2
22435;SDS011;11385;50.822;4.324;2022-12-17T00:01:23;76.97;;;43.85;;
22435;SDS011;11385;50.822;4.324;2022-12-17T00:03:55;70.67;;;41.98;;
22435;SDS011;11385;50.822;4.324;2022-12-17T00:06:27;71.57;;;41.63;;
22435;SDS011;11385;50.822;4.324;2022-12-17T00:09:00;80.00;;;41.18;;
22435;SDS011;11385;50.822;4.324;2022-12-17T00:11:32;78.28;;;43.17;;
22435;SDS011;11385;50.822;4.324;2022-12-17T00:14:04;74.77;;;43.00;;
22435;SDS011;11385;50.822;4.324;2022-12-17T00:16:37;73.92;;;42.67;;
22435;SDS011;11385;50.822;4.324;2022-12-17T00:19:09;81.08;;;44.73;;
22435;SDS011;11385;50.822;4.324;2022-12-17T00:21:42;77.30;;;45.55;;
22435;SDS011;11385;50.822;4.324;2022-12-17T00:24:14;75.05;;;45.10;;
22435;SDS011;11385;50.822;4.324;2022-12-17T00:26:46;71.60;;;41.05;;
22435;SDS011;11385;50.822;4.324;2022-12-17T00:29:19;77.82;;;43.38;;
22435;SDS011;11385;50.822;4.324;2022-12-17T00:31:51;75.22;;;42.55;;
22435;SDS011;11385;50.822;4.324;2022-12-17T00:34:23;71.17;;;41.48;;
22435;SDS011;11385;50.822;4.324;2022-12-17T00:36:56;76.33;;;43.78;;
22435;SDS011;11385;50.822;4.324;2022-12-17T00:39:28;72.42;;;41.42;;
22435;SDS011;11385;50.822;4.324;2022-12-17T00:42:00;76.65;;;41.63;;
22435;SDS011;11385;50.822;4.324;2022-12-17T00:44:33;82.62;;;41.65;;
22435;SDS011;11385;50.822;4.324;2022-12-17T00:47:05;68.67;;;40.23;;
22435;SDS011;11385;50.822;4.324;2022-12-17T00:49:37;66.50;;;40.48;;
22435;SDS011;11385;50.822;4.324;2022-12-17T00:52:10;67.60;;;38.90;;
22435;SDS011;11385;50.822;4.324;2022-12-17T00:54:42;69.82;;;39.27;;
22435;SDS011;11385;50.822;4.324;2022-12-17T00:57:15;69.87;;;38.75;;
22435;SDS011;11385;50.822;4.324;2022-12-17T00:59:47;69.37;;;38.33;;
22435;SDS011;11385;50.822;4.324;2022-12-17T01:02:19;67.30;;;39.92;;
22435;SDS011;11385;50.822;4.324;2022-12-17T01:04:52;68.87;;;39.35;;
22435;SDS011;11385;50.822;4.324;2022-12-17T01:07:24;66.57;;;38.53;;
22435;SDS011;11385;50.822;4.324;2022-12-17T01:09:57;65.85;;;37.13;;
22435;SDS011;11385;50.822;4.324;2022-12-17T01:12:29;65.47;;;38.28;;
22435;SDS011;11385;50.822;4.324;2022-12-17T01:15:01;62.53;;;37.63;;
22435;SDS011;11385;50.822;4.324;2022-12-17T01:17:34;64.17;;;38.83;;
22435;SDS011;11385;50.822;4.324;2022-12-17T01:20:06;64.95;;;38.13;;
22435;SDS011;11385;50.822;4.324;2022-12-17T01:22:38;62.48;;;37.13;;
22435;SDS011;11385;50.822;4.324;2022-12-17T01:25:11;61.20;;;36.93;;
22435;SDS011;11385;50.822;4.324;2022-12-17T01:27:46;63.98;;;37.80;;
22435;SDS011;11385;50.822;4.324;2022-12-17T01:30:19;65.03;;;37.98;;
22435;SDS011;11385;50.822;4.324;2022-12-17T01:32:51;63.02;;;36.80;;
22435;SDS011;11385;50.822;4.324;2022-12-17T01:35:24;61.83;;;36.60;;
22435;SDS011;11385;50.822;4.324;2022-12-17T01:37:56;60.78;;;35.85;;
22435;SDS011;11385;50.822;4.324;2022-12-17T01:40:29;65.65;;;36.53;;
22435;SDS011;11385;50.822;4.324;2022-12-17T01:43:01;58.40;;;36.33;;
22435;SDS011;11385;50.822;4.324;2022-12-17T01:45:35;60.33;;;35.95;;
22435;SDS011;11385;50.822;4.324;2022-12-17T01:48:11;62.38;;;36.68;;
22435;SDS011;11385;50.822;4.324;2022-12-17T01:50:48;59.48;;;36.20;;
22435;SDS011;11385;50.822;4.324;2022-12-17T01:53:24;61.88;;;35.45;;
22435;SDS011;11385;50.822;4.324;2022-12-17T01:55:58;63.10;;;37.00;;
22435;SDS011;11385;50.822;4.324;2022-12-17T01:58:43;61.13;;;35.35;;
22435;SDS011;11385;50.822;4.324;2022-12-17T02:01:16;64.37;;;36.20;;
22435;SDS011;11385;50.822;4.324;2022-12-17T02:03:48;60.17;;;36.20;;
22435;SDS011;11385;50.822;4.324;2022-12-17T02:06:23;61.85;;;37.90;;
22435;SDS011;11385;50.822;4.324;2022-12-17T02:09:06;70.30;;;38.15;;
22435;SDS011;11385;50.822;4.324;2022-12-17T02:11:55;67.95;;;39.58;;
22435;SDS011;11385;50.822;4.324;2022-12-17T02:14:34;65.42;;;38.10;;
22435;SDS011;11385;50.822;4.324;2022-12-17T02:17:11;68.33;;;38.30;;
22435;SDS011;11385;50.822;4.324;2022-12-17T02:19:56;70.97;;;39.20;;
22435;SDS011;11385;50.822;4.324;2022-12-17T02:22:37;59.75;;;37.17;;
22435;SDS011;11385;50.822;4.324;2022-12-17T02:25:15;65.75;;;37.20;;
22435;SDS011;11385;50.822;4.324;2022-12-17T02:27:48;61.60;;;36.77;;
22435;SDS011;11385;50.822;4.324;2022-12-17T02:30:20;67.03;;;36.33;;
22435;SDS011;11385;50.822;4.324;2022-12-17T02:32:53;60.80;;;36.05;;
22435;SDS011;11385;50.822;4.324;2022-12-17T02:35:28;66.87;;;35.55;;
22435;SDS011;11385;50.822;4.324;2022-12-17T02:40:49;59.00;;;33.33;;
22435;SDS011;11385;50.822;4.324;2022-12-17T02:43:22;58.17;;;33.00;;
22435;SDS011;11385;50.822;4.324;2022-12-17T02:45:56;57.03;;;33.35;;
22435;SDS011;11385;50.822;4.324;2022-12-17T02:48:28;56.33;;;32.33;;
22435;SDS011;11385;50.822;4.324;2022-12-17T02:51:01;52.10;;;31.17;;
22435;SDS011;11385;50.822;4.324;2022-12-17T02:53:34;59.40;;;32.10;;
22435;SDS011;11385;50.822;4.324;2022-12-17T02:56:10;55.88;;;32.33;;
22435;SDS011;11385;50.822;4.324;2022-12-17T02:58:42;59.90;;;31.30;;
22435;SDS011;11385;50.822;4.324;2022-12-17T03:01:15;50.52;;;30.68;;
22435;SDS011;11385;50.822;4.324;2022-12-17T03:03:47;54.77;;;31.77;;
22435;SDS011;11385;50.822;4.324;2022-12-17T03:06:19;56.65;;;32.25;;
22435;SDS011;11385;50.822;4.324;2022-12-17T03:08:52;55.33;;;32.48;;
22435;SDS011;11385;50.822;4.324;2022-12-17T03:11:27;57.25;;;31.52;;
22435;SDS011;11385;50.822;4.324;2022-12-17T03:13:59;56.00;;;32.05;;
22435;SDS011;11385;50.822;4.324;2022-12-17T03:16:31;50.75;;;31.02;;
22435;SDS011;11385;50.822;4.324;2022-12-17T03:19:04;55.92;;;31.55;;
22435;SDS011;11385;50.822;4.324;2022-12-17T03:21:36;53.60;;;31.02;;
22435;SDS011;11385;50.822;4.324;2022-12-17T03:24:08;53.25;;;31.55;;
22435;SDS011;11385;50.822;4.324;2022-12-17T03:26:41;60.78;;;32.15;;
22435;SDS011;11385;50.822;4.324;2022-12-17T03:29:13;55.88;;;33.00;;
22435;SDS011;11385;50.822;4.324;2022-12-17T03:31:45;56.02;;;31.85;;
22435;SDS011;11385;50.822;4.324;2022-12-17T03:34:18;56.30;;;32.80;;
22435;SDS011;11385;50.822;4.324;2022-12-17T03:36:51;62.55;;;34.65;;
22435;SDS011;11385;50.822;4.324;2022-12-17T03:39:23;56.23;;;31.23;;
22435;SDS011;11385;50.822;4.324;2022-12-17T03:41:55;52.50;;;31.37;;
22435;SDS011;11385;50.822;4.324;2022-12-17T03:44:28;53.98;;;29.07;;
22435;SDS011;11385;50.822;4.324;2022-12-17T03:47:00;49.15;;;30.08;;
22435;SDS011;11385;50.822;4.324;2022-12-17T03:49:33;58.23;;;30.27;;
22435;SDS011;11385;50.822;4.324;2022-12-17T03:52:05;49.77;;;29.18;;
22435;SDS011;11385;50.822;4.324;2022-12-17T03:54:37;54.15;;;29.60;;
22435;SDS011;11385;50.822;4.324;2022-12-17T03:57:10;49.53;;;29.87;;
22435;SDS011;11385;50.822;4.324;2022-12-17T03:59:42;50.05;;;30.23;;
22435;SDS011;11385;50.822;4.324;2022-12-17T04:02:14;50.63;;;30.12;;
22435;SDS011;11385;50.822;4.324;2022-12-17T04:04:47;51.10;;;30.52;;
22435;SDS011;11385;50.822;4.324;2022-12-17T04:07:19;53.98;;;31.00;;
22435;SDS011;11385;50.822;4.324;2022-12-17T04:09:51;48.45;;;30.85;;
22435;SDS011;11385;50.822;4.324;2022-12-17T04:12:24;53.78;;;30.32;;
22435;SDS011;11385;50.822;4.324;2022-12-17T04:14:56;49.55;;;29.12;;
22435;SDS011;11385;50.822;4.324;2022-12-17T04:17:28;56.15;;;29.45;;
22435;SDS011;11385;50.822;4.324;2022-12-17T04:20:01;51.20;;;30.27;;
22435;SDS011;11385;50.822;4.324;2022-12-17T04:22:33;49.42;;;28.92;;
22435;SDS011;11385;50.822;4.324;2022-12-17T04:25:05;51.55;;;30.48;;
22435;SDS011;11385;50.822;4.324;2022-12-17T04:27:38;53.65;;;29.72;;
22435;SDS011;11385;50.822;4.324;2022-12-17T04:30:10;50.55;;;30.70;;
22435;SDS011;11385;50.822;4.324;2022-12-17T04:32:43;51.88;;;29.35;;
22435;SDS011;11385;50.822;4.324;2022-12-17T04:35:15;55.55;;;30.62;;
22435;SDS011;11385;50.822;4.324;2022-12-17T04:37:47;50.63;;;29.30;;
22435;SDS011;11385;50.822;4.324;2022-12-17T04:40:20;53.75;;;30.30;;
22435;SDS011;11385;50.822;4.324;2022-12-17T04:42:53;51.25;;;30.90;;
22435;SDS011;11385;50.822;4.324;2022-12-17T04:45:25;48.15;;;28.67;;
22435;SDS011;11385;50.822;4.324;2022-12-17T04:48:01;49.88;;;29.50;;
22435;SDS011;11385;50.822;4.324;2022-12-17T04:50:36;52.17;;;29.63;;
22435;SDS011;11385;50.822;4.324;2022-12-17T04:53:09;49.80;;;29.48;;
22435;SDS011;11385;50.822;4.324;2022-12-17T04:55:41;50.98;;;28.73;;
22435;SDS011;11385;50.822;4.324;2022-12-17T04:58:14;46.65;;;28.87;;
22435;SDS011;11385;50.822;4.324;2022-12-17T05:01:03;54.83;;;28.87;;
22435;SDS011;11385;50.822;4.324;2022-12-17T05:03:35;50.83;;;28.67;;
22435;SDS011;11385;50.822;4.324;2022-12-17T05:06:07;52.45;;;28.40;;
22435;SDS011;11385;50.822;4.324;2022-12-17T05:08:40;54.65;;;31.07;;
22435;SDS011;11385;50.822;4.324;2022-12-17T05:11:12;50.73;;;29.05;;
22435;SDS011;11385;50.822;4.324;2022-12-17T05:13:44;47.90;;;28.77;;
22435;SDS011;11385;50.822;4.324;2022-12-17T05:16:17;47.25;;;28.90;;
22435;SDS011;11385;50.822;4.324;2022-12-17T05:18:49;48.28;;;27.42;;
22435;SDS011;11385;50.822;4.324;2022-12-17T05:21:22;50.45;;;28.87;;
22435;SDS011;11385;50.822;4.324;2022-12-17T05:23:54;50.03;;;28.77;;
22435;SDS011;11385;50.822;4.324;2022-12-17T05:26:27;46.77;;;27.22;;
22435;SDS011;11385;50.822;4.324;2022-12-17T05:29:00;48.68;;;28.20;;
22435;SDS011;11385;50.822;4.324;2022-12-17T05:31:32;47.80;;;27.45;;
22435;SDS011;11385;50.822;4.324;2022-12-17T05:34:04;49.33;;;27.60;;
22435;SDS011;11385;50.822;4.324;2022-12-17T05:36:37;44.48;;;25.35;;
22435;SDS011;11385;50.822;4.324;2022-12-17T05:39:09;48.33;;;26.95;;
22435;SDS011;11385;50.822;4.324;2022-12-17T05:41:42;48.35;;;26.48;;
22435;SDS011;11385;50.822;4.324;2022-12-17T05:44:14;46.00;;;26.90;;
22435;SDS011;11385;50.822;4.324;2022-12-17T05:46:46;40.73;;;25.23;;
22435;SDS011;11385;50.822;4.324;2022-12-17T05:49:19;47.38;;;27.32;;
22435;SDS011;11385;50.822;4.324;2022-12-17T05:51:51;50.08;;;26.82;;
22435;SDS011;11385;50.822;4.324;2022-12-17T05:54:23;46.85;;;26.10;;
22435;SDS011;11385;50.822;4.324;2022-12-17T05:56:56;43.95;;;27.40;;
22435;SDS011;11385;50.822;4.324;2022-12-17T05:59:28;43.85;;;27.55;;
22435;SDS011;11385;50.822;4.324;2022-12-17T06:02:00;49.55;;;28.50;;
22435;SDS011;11385;50.822;4.324;2022-12-17T06:04:33;42.13;;;25.60;;
22435;SDS011;11385;50.822;4.324;2022-12-17T06:07:05;45.90;;;26.57;;
22435;SDS011;11385;50.822;4.324;2022-12-17T06:09:38;43.55;;;26.02;;
22435;SDS011;11385;50.822;4.324;2022-12-17T06:12:10;41.73;;;25.95;;
22435;SDS011;11385;50.822;4.324;2022-12-17T06:14:43;44.93;;;27.17;;
22435;SDS011;11385;50.822;4.324;2022-12-17T06:17:15;50.05;;;27.27;;
22435;SDS011;11385;50.822;4.324;2022-12-17T06:19:47;48.05;;;26.73;;
22435;SDS011;11385;50.822;4.324;2022-12-17T06:22:20;46.53;;;26.42;;
22435;SDS011;11385;50.822;4.324;2022-12-17T06:24:52;43.68;;;25.20;;
22435;SDS011;11385;50.822;4.324;2022-12-17T06:27:25;46.70;;;27.50;;
22435;SDS011;11385;50.822;4.324;2022-12-17T06:29:57;42.10;;;25.77;;
22435;SDS011;11385;50.822;4.324;2022-12-17T06:32:29;50.48;;;27.10;;
22435;SDS011;11385;50.822;4.324;2022-12-17T06:35:02;43.08;;;25.70;;
22435;SDS011;11385;50.822;4.324;2022-12-17T06:37:34;40.80;;;24.67;;
22435;SDS011;11385;50.822;4.324;2022-12-17T06:40:07;44.30;;;25.37;;
22435;SDS011;11385;50.822;4.324;2022-12-17T06:42:53;45.80;;;26.20;;
22435;SDS011;11385;50.822;4.324;2022-12-17T06:45:26;43.63;;;25.40;;
22435;SDS011;11385;50.822;4.324;2022-12-17T06:48:00;50.60;;;27.25;;
22435;SDS011;11385;50.822;4.324;2022-12-17T06:50:33;44.33;;;24.70;;
22435;SDS011;11385;50.822;4.324;2022-12-17T06:53:06;43.55;;;26.02;;
22435;SDS011;11385;50.822;4.324;2022-12-17T06:55:38;42.08;;;25.68;;
22435;SDS011;11385;50.822;4.324;2022-12-17T06:58:11;46.55;;;25.62;;
22435;SDS011;11385;50.822;4.324;2022-12-17T07:00:43;40.43;;;25.15;;
22435;SDS011;11385;50.822;4.324;2022-12-17T07:03:17;46.63;;;25.27;;
22435;SDS011;11385;50.822;4.324;2022-12-17T07:05:49;46.28;;;25.75;;
22435;SDS011;11385;50.822;4.324;2022-12-17T07:08:21;42.93;;;25.50;;
22435;SDS011;11385;50.822;4.324;2022-12-17T07:10:54;45.48;;;25.00;;
22435;SDS011;11385;50.822;4.324;2022-12-17T07:13:28;40.28;;;25.25;;
22435;SDS011;11385;50.822;4.324;2022-12-17T07:16:00;45.03;;;26.73;;
22435;SDS011;11385;50.822;4.324;2022-12-17T07:18:33;43.92;;;25.70;;
22435;SDS011;11385;50.822;4.324;2022-12-17T07:21:05;46.23;;;26.00;;
22435;SDS011;11385;50.822;4.324;2022-12-17T07:23:48;44.13;;;25.27;;
22435;SDS011;11385;50.822;4.324;2022-12-17T07:26:21;42.40;;;24.27;;
22435;SDS011;11385;50.822;4.324;2022-12-17T07:28:53;42.27;;;25.20;;
22435;SDS011;11385;50.822;4.324;2022-12-17T07:31:26;42.10;;;24.40;;
22435;SDS011;11385;50.822;4.324;2022-12-17T07:33:58;48.42;;;25.40;;
22435;SDS011;11385;50.822;4.324;2022-12-17T07:36:30;44.70;;;25.15;;
22435;SDS011;11385;50.822;4.324;2022-12-17T07:39:03;42.15;;;25.17;;
22435;SDS011;11385;50.822;4.324;2022-12-17T07:41:35;48.50;;;26.35;;
22435;SDS011;11385;50.822;4.324;2022-12-17T07:44:07;50.88;;;26.82;;
22435;SDS011;11385;50.822;4.324;2022-12-17T07:46:40;49.40;;;26.77;;
22435;SDS011;11385;50.822;4.324;2022-12-17T07:49:12;48.15;;;27.32;;
22435;SDS011;11385;50.822;4.324;2022-12-17T07:51:44;49.90;;;27.48;;
22435;SDS011;11385;50.822;4.324;2022-12-17T07:54:17;47.27;;;26.73;;
22435;SDS011;11385;50.822;4.324;2022-12-17T07:56:49;41.23;;;25.85;;
22435;SDS011;11385;50.822;4.324;2022-12-17T07:59:21;43.28;;;26.12;;
22435;SDS011;11385;50.822;4.324;2022-12-17T08:01:54;49.42;;;28.07;;
22435;SDS011;11385;50.822;4.324;2022-12-17T08:04:26;42.53;;;25.48;;
22435;SDS011;11385;50.822;4.324;2022-12-17T08:06:58;45.40;;;26.45;;
22435;SDS011;11385;50.822;4.324;2022-12-17T08:09:42;43.90;;;23.50;;
22435;SDS011;11385;50.822;4.324;2022-12-17T08:12:14;47.17;;;24.98;;
22435;SDS011;11385;50.822;4.324;2022-12-17T08:14:46;40.83;;;24.37;;
22435;SDS011;11385;50.822;4.324;2022-12-17T08:17:19;41.40;;;25.17;;
22435;SDS011;11385;50.822;4.324;2022-12-17T08:19:51;46.00;;;26.90;;
22435;SDS011;11385;50.822;4.324;2022-12-17T08:25:08;47.20;;;25.68;;
22435;SDS011;11385;50.822;4.324;2022-12-17T08:27:40;46.02;;;25.68;;
22435;SDS011;11385;50.822;4.324;2022-12-17T08:30:13;44.77;;;25.37;;
22435;SDS011;11385;50.822;4.324;2022-12-17T08:32:46;42.65;;;24.02;;
22435;SDS011;11385;50.822;4.324;2022-12-17T08:35:19;46.37;;;25.62;;
22435;SDS011;11385;50.822;4.324;2022-12-17T08:37:51;42.43;;;25.40;;
22435;SDS011;11385;50.822;4.324;2022-12-17T08:40:24;41.48;;;23.60;;
22435;SDS011;11385;50.822;4.324;2022-12-17T08:42:56;45.05;;;26.37;;
22435;SDS011;11385;50.822;4.324;2022-12-17T08:45:29;43.75;;;25.17;;
22435;SDS011;11385;50.822;4.324;2022-12-17T08:48:03;56.25;;;30.00;;
22435;SDS011;11385;50.822;4.324;2022-12-17T08:50:36;49.30;;;29.42;;
22435;SDS011;11385;50.822;4.324;2022-12-17T08:53:08;47.98;;;27.05;;
22435;SDS011;11385;50.822;4.324;2022-12-17T08:55:41;45.03;;;25.88;;
22435;SDS011;11385;50.822;4.324;2022-12-17T08:58:13;47.20;;;27.45;;
22435;SDS011;11385;50.822;4.324;2022-12-17T09:00:46;49.73;;;26.80;;
22435;SDS011;11385;50.822;4.324;2022-12-17T09:03:18;50.15;;;26.90;;
22435;SDS011;11385;50.822;4.324;2022-12-17T09:05:51;50.52;;;28.32;;
22435;SDS011;11385;50.822;4.324;2022-12-17T09:08:24;49.35;;;27.70;;
22435;SDS011;11385;50.822;4.324;2022-12-17T09:10:58;48.30;;;27.07;;
22435;SDS011;11385;50.822;4.324;2022-12-17T09:13:30;51.40;;;28.20;;
22435;SDS011;11385;50.822;4.324;2022-12-17T09:16:03;49.23;;;29.42;;
22435;SDS011;11385;50.822;4.324;2022-12-17T09:18:35;52.53;;;29.50;;
22435;SDS011;11385;50.822;4.324;2022-12-17T09:21:08;54.60;;;30.37;;
22435;SDS011;11385;50.822;4.324;2022-12-17T09:23:40;52.60;;;29.63;;
22435;SDS011;11385;50.822;4.324;2022-12-17T09:26:12;50.50;;;28.47;;
22435;SDS011;11385;50.822;4.324;2022-12-17T09:28:45;55.25;;;29.65;;
22435;SDS011;11385;50.822;4.324;2022-12-17T09:31:17;53.52;;;29.63;;
22435;SDS011;11385;50.822;4.324;2022-12-17T09:33:50;48.87;;;29.18;;
22435;SDS011;11385;50.822;4.324;2022-12-17T09:36:22;50.85;;;28.55;;
22435;SDS011;11385;50.822;4.324;2022-12-17T09:38:56;58.28;;;33.55;;
22435;SDS011;11385;50.822;4.324;2022-12-17T09:41:29;59.25;;;32.20;;
22435;SDS011;11385;50.822;4.324;2022-12-17T09:47:04;62.85;;;38.25;;
22435;SDS011;11385;50.822;4.324;2022-12-17T09:52:17;59.53;;;31.82;;
22435;SDS011;11385;50.822;4.324;2022-12-17T09:54:56;58.10;;;31.10;;
22435;SDS011;11385;50.822;4.324;2022-12-17T09:57:29;55.30;;;31.17;;
22435;SDS011;11385;50.822;4.324;2022-12-17T10:00:12;52.45;;;31.23;;
22435;SDS011;11385;50.822;4.324;2022-12-17T10:02:48;55.78;;;30.97;;
22435;SDS011;11385;50.822;4.324;2022-12-17T10:05:22;58.42;;;33.50;;
22435;SDS011;11385;50.822;4.324;2022-12-17T10:07:57;59.83;;;32.17;;
22435;SDS011;11385;50.822;4.324;2022-12-17T10:10:31;57.48;;;31.50;;
22435;SDS011;11385;50.822;4.324;2022-12-17T10:13:12;58.10;;;30.75;;
22435;SDS011;11385;50.822;4.324;2022-12-17T10:15:47;52.95;;;29.63;;
22435;SDS011;11385;50.822;4.324;2022-12-17T10:18:20;54.33;;;30.02;;
22435;SDS011;11385;50.822;4.324;2022-12-17T10:20:55;55.23;;;30.17;;
22435;SDS011;11385;50.822;4.324;2022-12-17T10:23:30;56.77;;;31.23;;
22435;SDS011;11385;50.822;4.324;2022-12-17T10:26:04;57.48;;;31.68;;
22435;SDS011;11385;50.822;4.324;2022-12-17T10:28:37;55.67;;;30.82;;
22435;SDS011;11385;50.822;4.324;2022-12-17T10:31:10;52.33;;;30.80;;
22435;SDS011;11385;50.822;4.324;2022-12-17T10:33:47;56.63;;;33.18;;
22435;SDS011;11385;50.822;4.324;2022-12-17T10:36:20;65.75;;;36.50;;
22435;SDS011;11385;50.822;4.324;2022-12-17T10:38:54;57.98;;;33.23;;
22435;SDS011;11385;50.822;4.324;2022-12-17T10:41:28;54.48;;;30.62;;
22435;SDS011;11385;50.822;4.324;2022-12-17T10:44:17;53.28;;;30.55;;
22435;SDS011;11385;50.822;4.324;2022-12-17T10:46:43;39.80;;;22.73;;
22435;SDS011;11385;50.822;4.324;2022-12-17T10:49:17;53.75;;;30.40;;
22435;SDS011;11385;50.822;4.324;2022-12-17T10:51:51;53.13;;;29.60;;
22435;SDS011;11385;50.822;4.324;2022-12-17T10:54:26;51.42;;;27.95;;
22435;SDS011;11385;50.822;4.324;2022-12-17T11:00:35;53.52;;;28.50;;
22435;SDS011;11385;50.822;4.324;2022-12-17T11:02:59;58.02;;;30.27;;
22435;SDS011;11385;50.822;4.324;2022-12-17T11:05:34;53.50;;;29.87;;
22435;SDS011;11385;50.822;4.324;2022-12-17T11:08:07;51.20;;;29.80;;
22435;SDS011;11385;50.822;4.324;2022-12-17T11:10:41;53.85;;;28.38;;
22435;SDS011;11385;50.822;4.324;2022-12-17T11:13:26;51.50;;;30.17;;
22435;SDS011;11385;50.822;4.324;2022-12-17T11:16:01;56.53;;;30.30;;
22435;SDS011;11385;50.822;4.324;2022-12-17T11:18:54;52.17;;;30.45;;
22435;SDS011;11385;50.822;4.324;2022-12-17T11:21:33;50.40;;;30.80;;
22435;SDS011;11385;50.822;4.324;2022-12-17T11:24:11;56.18;;;30.08;;
22435;SDS011;11385;50.822;4.324;2022-12-17T11:26:47;55.25;;;30.77;;
22435;SDS011;11385;50.822;4.324;2022-12-17T11:29:22;50.75;;;29.82;;
22435;SDS011;11385;50.822;4.324;2022-12-17T11:32:03;55.58;;;29.57;;
22435;SDS011;11385;50.822;4.324;2022-12-17T11:34:48;49.85;;;30.45;;
22435;SDS011;11385;50.822;4.324;2022-12-17T11:37:27;56.90;;;31.07;;
22435;SDS011;11385;50.822;4.324;2022-12-17T11:41:10;55.17;;;31.80;;
22435;SDS011;11385;50.822;4.324;2022-12-17T11:43:00;53.33;;;30.23;;
22435;SDS011;11385;50.822;4.324;2022-12-17T11:45:42;52.95;;;29.30;;
22435;SDS011;11385;50.822;4.324;2022-12-17T11:48:34;54.80;;;30.50;;
22435;SDS011;11385;50.822;4.324;2022-12-17T11:51:11;48.02;;;28.87;;
22435;SDS011;11385;50.822;4.324;2022-12-17T11:53:56;48.23;;;29.65;;
22435;SDS011;11385;50.822;4.324;2022-12-17T11:56:38;55.88;;;30.92;;
22435;SDS011;11385;50.822;4.324;2022-12-17T12:02:16;53.85;;;29.98;;
22435;SDS011;11385;50.822;4.324;2022-12-17T12:04:58;49.73;;;29.67;;
22435;SDS011;11385;50.822;4.324;2022-12-17T12:07:37;52.58;;;29.63;;
22435;SDS011;11385;50.822;4.324;2022-12-17T12:10:20;49.00;;;28.23;;
22435;SDS011;11385;50.822;4.324;2022-12-17T12:12:58;46.15;;;26.95;;
22435;SDS011;11385;50.822;4.324;2022-12-17T12:15:43;48.05;;;27.65;;
22435;SDS011;11385;50.822;4.324;2022-12-17T12:24:14;46.28;;;27.90;;
22435;SDS011;11385;50.822;4.324;2022-12-17T12:26:49;45.92;;;26.82;;
22435;SDS011;11385;50.822;4.324;2022-12-17T12:29:29;45.55;;;27.35;;
22435;SDS011;11385;50.822;4.324;2022-12-17T12:32:06;46.42;;;27.30;;
22435;SDS011;11385;50.822;4.324;2022-12-17T12:34:56;46.05;;;26.93;;
22435;SDS011;11385;50.822;4.324;2022-12-17T12:37:31;43.83;;;24.82;;
22435;SDS011;11385;50.822;4.324;2022-12-17T12:40:27;38.98;;;24.92;;
22435;SDS011;11385;50.822;4.324;2022-12-17T12:46:12;40.95;;;24.98;;
22435;SDS011;11385;50.822;4.324;2022-12-17T12:51:26;38.98;;;24.02;;
22435;SDS011;11385;50.822;4.324;2022-12-17T12:54:15;47.20;;;26.03;;
22435;SDS011;11385;50.822;4.324;2022-12-17T12:56:36;47.25;;;28.23;;
22435;SDS011;11385;50.822;4.324;2022-12-17T12:59:10;56.45;;;31.60;;
22435;SDS011;11385;50.822;4.324;2022-12-17T13:01:56;41.58;;;25.68;;
22435;SDS011;11385;50.822;4.324;2022-12-17T13:04:30;41.08;;;25.50;;
22435;SDS011;11385;50.822;4.324;2022-12-17T13:07:17;43.28;;;24.85;;
22435;SDS011;11385;50.822;4.324;2022-12-17T13:09:37;31.07;;;18.77;;
22435;SDS011;11385;50.822;4.324;2022-12-17T13:14:46;58.55;;;34.05;;
22435;SDS011;11385;50.822;4.324;2022-12-17T13:17:25;45.63;;;26.73;;
22435;SDS011;11385;50.822;4.324;2022-12-17T13:20:00;42.38;;;24.82;;
22435;SDS011;11385;50.822;4.324;2022-12-17T13:22:30;39.18;;;24.43;;
22435;SDS011;11385;50.822;4.324;2022-12-17T13:27:38;44.18;;;25.85;;
22435;SDS011;11385;50.822;4.324;2022-12-17T13:30:17;38.92;;;23.25;;
22435;SDS011;11385;50.822;4.324;2022-12-17T13:33:03;39.13;;;23.85;;
22435;SDS011;11385;50.822;4.324;2022-12-17T13:35:39;39.83;;;23.22;;
22435;SDS011;11385;50.822;4.324;2022-12-17T13:38:17;53.95;;;30.55;;
22435;SDS011;11385;50.822;4.324;2022-12-17T13:40:47;41.70;;;25.80;;
22435;SDS011;11385;50.822;4.324;2022-12-17T13:43:48;45.58;;;26.02;;
22435;SDS011;11385;50.822;4.324;2022-12-17T13:46:20;38.80;;;23.38;;
22435;SDS011;11385;50.822;4.324;2022-12-17T13:48:52;44.20;;;24.60;;
22435;SDS011;11385;50.822;4.324;2022-12-17T13:51:21;39.58;;;24.85;;
22435;SDS011;11385;50.822;4.324;2022-12-17T13:53:52;42.10;;;23.75;;
22435;SDS011;11385;50.822;4.324;2022-12-17T13:56:22;41.42;;;23.70;;
22435;SDS011;11385;50.822;4.324;2022-12-17T13:58:52;45.10;;;24.90;;
22435;SDS011;11385;50.822;4.324;2022-12-17T14:01:21;40.67;;;24.15;;
22435;SDS011;11385;50.822;4.324;2022-12-17T14:03:52;46.70;;;23.45;;
22435;SDS011;11385;50.822;4.324;2022-12-17T14:06:23;43.42;;;24.82;;
22435;SDS011;11385;50.822;4.324;2022-12-17T14:08:52;41.15;;;24.10;;
22435;SDS011;11385;50.822;4.324;2022-12-17T14:11:21;40.90;;;22.95;;
22435;SDS011;11385;50.822;4.324;2022-12-17T14:13:54;36.30;;;21.40;;
22435;SDS011;11385;50.822;4.324;2022-12-17T14:16:21;40.10;;;23.57;;
22435;SDS011;11385;50.822;4.324;2022-12-17T14:18:49;40.17;;;23.87;;
22435;SDS011;11385;50.822;4.324;2022-12-17T14:21:17;40.50;;;23.90;;
22435;SDS011;11385;50.822;4.324;2022-12-17T14:23:45;41.33;;;22.98;;
22435;SDS011;11385;50.822;4.324;2022-12-17T14:26:13;38.53;;;23.50;;
22435;SDS011;11385;50.822;4.324;2022-12-17T14:28:44;45.52;;;23.60;;
22435;SDS011;11385;50.822;4.324;2022-12-17T14:31:18;43.92;;;23.90;;
22435;SDS011;11385;50.822;4.324;2022-12-17T14:33:58;43.65;;;23.70;;
22435;SDS011;11385;50.822;4.324;2022-12-17T14:36:22;41.10;;;24.65;;
22435;SDS011;11385;50.822;4.324;2022-12-17T14:38:56;42.33;;;24.90;;
22435;SDS011;11385;50.822;4.324;2022-12-17T14:41:25;37.93;;;22.87;;
22435;SDS011;11385;50.822;4.324;2022-12-17T14:43:59;43.38;;;22.95;;
22435;SDS011;11385;50.822;4.324;2022-12-17T14:46:27;40.60;;;23.87;;
22435;SDS011;11385;50.822;4.324;2022-12-17T14:48:56;38.88;;;24.10;;
22435;SDS011;11385;50.822;4.324;2022-12-17T14:51:27;43.78;;;24.63;;
22435;SDS011;11385;50.822;4.324;2022-12-17T14:54:26;46.90;;;24.30;;
22435;SDS011;11385;50.822;4.324;2022-12-17T14:56:55;43.78;;;23.55;;
22435;SDS011;11385;50.822;4.324;2022-12-17T14:59:29;43.15;;;25.43;;
22435;SDS011;11385;50.822;4.324;2022-12-17T15:01:59;42.40;;;24.52;;
22435;SDS011;11385;50.822;4.324;2022-12-17T15:04:29;43.33;;;24.30;;
22435;SDS011;11385;50.822;4.324;2022-12-17T15:06:57;42.65;;;25.70;;
22435;SDS011;11385;50.822;4.324;2022-12-17T15:09:25;44.58;;;24.63;;
22435;SDS011;11385;50.822;4.324;2022-12-17T15:11:51;48.83;;;25.80;;
22435;SDS011;11385;50.822;4.324;2022-12-17T15:14:18;42.58;;;24.12;;
22435;SDS011;11385;50.822;4.324;2022-12-17T15:16:45;41.50;;;23.70;;
22435;SDS011;11385;50.822;4.324;2022-12-17T15:19:12;42.30;;;22.40;;
22435;SDS011;11385;50.822;4.324;2022-12-17T15:21:39;38.23;;;21.95;;
22435;SDS011;11385;50.822;4.324;2022-12-17T15:24:08;36.45;;;21.07;;
22435;SDS011;11385;50.822;4.324;2022-12-17T15:26:37;35.33;;;20.77;;
22435;SDS011;11385;50.822;4.324;2022-12-17T15:29:05;39.60;;;20.60;;
22435;SDS011;11385;50.822;4.324;2022-12-17T15:31:31;39.50;;;20.62;;
22435;SDS011;11385;50.822;4.324;2022-12-17T15:33:58;39.03;;;20.70;;